Time;durP1;ratioP1;P1;durP2;ratioP2;P2;SDS_P1;SDS_P2;PMS_P1;PMS_P2;Temp;Humidity;BMP_temperature;BMP_pressure;BME280_temperature;BME280_humidity;BME280_pressure;Samples;Min_cycle;Max_cycle;Signal;HPM_P1;HPM_P2
2022/09/17 00:01:52;;;;;;;24.05;2.83;;;10.40;99.90;;;;;;5052121;28;20071;-71
2022/09/17 00:04:17;;;;;;;23.17;2.78;;;10.40;99.90;;;;;;5059770;28;20052;-72
2022/09/17 00:06:43;;;;;;;21.17;2.90;;;10.50;99.90;;;;;;5058690;28;20044;-73
2022/09/17 00:09:09;;;;;;;15.75;2.88;;;10.50;99.90;;;;;;5057438;28;20086;-69
2022/09/17 00:11:38;;;;;;;19.88;2.83;;;10.50;99.90;;;;;;5055107;28;20049;-71
2022/09/17 00:14:07;;;;;;;31.13;3.40;;;10.60;99.90;;;;;;5051244;28;20391;-74
2022/09/17 00:16:39;;;;;;;18.95;2.88;;;10.50;99.90;;;;;;5057497;28;20036;-70
2022/09/17 00:19:07;;;;;;;17.83;3.33;;;10.60;99.90;;;;;;5074032;28;20037;-70
2022/09/17 00:21:32;;;;;;;18.77;2.63;;;10.60;99.90;;;;;;5055887;28;20274;-71
2022/09/17 00:24:00;;;;;;;22.45;2.70;;;10.60;99.90;;;;;;5044776;28;20499;-72
2022/09/17 00:26:27;;;;;;;19.88;3.05;;;10.60;99.90;;;;;;5043434;28;20052;-70
2022/09/17 00:28:54;;;;;;;18.08;3.28;;;10.60;99.90;;;;;;5050280;28;20029;-72
2022/09/17 00:31:21;;;;;;;22.70;2.85;;;10.70;99.90;;;;;;5047844;28;20357;-72
2022/09/17 00:33:47;;;;;;;22.45;2.47;;;10.80;99.90;;;;;;5046542;28;20049;-74
2022/09/17 00:36:13;;;;;;;22.98;2.60;;;10.80;99.90;;;;;;5045534;28;20234;-72
2022/09/17 00:38:38;;;;;;;19.23;2.85;;;10.80;99.90;;;;;;5055221;28;20032;-72
2022/09/17 00:41:05;;;;;;;22.15;3.13;;;10.70;99.90;;;;;;5047449;28;20037;-69
2022/09/17 00:43:51;;;;;;;17.98;2.35;;;10.70;99.90;;;;;;5044509;28;20041;-74
2022/09/17 00:46:42;;;;;;;21.58;2.50;;;10.70;99.90;;;;;;5042264;28;20063;-71
2022/09/17 00:49:17;;;;;;;21.60;2.95;;;10.60;99.90;;;;;;5058907;28;20396;-72
2022/09/17 00:51:53;;;;;;;19.00;2.33;;;10.60;99.90;;;;;;5048431;28;20040;-73
2022/09/17 00:54:19;;;;;;;14.68;2.47;;;10.60;99.90;;;;;;5046528;28;20048;-69
2022/09/17 00:56:46;;;;;;;19.27;2.65;;;10.50;99.90;;;;;;5046096;28;20078;-69
2022/09/17 00:59:13;;;;;;;24.13;2.50;;;10.50;99.90;;;;;;5040567;28;20049;-71
2022/09/17 01:01:39;;;;;;;24.38;2.40;;;10.50;99.90;;;;;;5057532;28;20037;-71
2022/09/17 01:04:05;;;;;;;21.95;2.70;;;10.30;99.90;;;;;;5045899;28;20113;-72
2022/09/17 01:07:15;;;;;;;15.70;2.33;;;10.30;99.90;;;;;;5041561;28;20152;-71
2022/09/17 01:10:06;;;;;;;18.98;2.83;;;10.20;99.90;;;;;;5046863;28;20044;-71
2022/09/17 01:13:14;;;;;;;21.30;2.70;;;10.30;99.90;;;;;;5049281;28;20045;-70
2022/09/17 01:15:54;;;;;;;24.48;2.95;;;10.30;99.90;;;;;;5063135;28;20037;-71
2022/09/17 01:18:59;;;;;;;14.50;2.40;;;10.30;99.90;;;;;;5042521;28;20407;-70
2022/09/17 01:21:43;;;;;;;19.58;2.40;;;10.30;99.90;;;;;;5050717;28;20075;-71
2022/09/17 01:24:36;;;;;;;18.17;2.22;;;10.30;99.90;;;;;;5051831;28;20048;-71
2022/09/17 01:27:14;;;;;;;17.85;2.78;;;10.30;99.90;;;;;;5063269;28;20092;-72
2022/09/17 01:30:07;;;;;;;16.17;2.47;;;10.30;99.90;;;;;;5045107;28;20483;-70
2022/09/17 01:32:48;;;;;;;17.42;2.42;;;10.20;99.90;;;;;;5055415;28;20037;-71
2022/09/17 01:35:24;;;;;;;20.60;2.47;;;10.20;99.90;;;;;;5048644;28;20033;-75
2022/09/17 01:38:32;;;;;;;21.20;2.53;;;10.30;99.90;;;;;;5059464;28;20084;-74
2022/09/17 01:41:36;;;;;;;19.55;2.30;;;10.30;99.90;;;;;;5054040;28;20029;-68
2022/09/17 01:44:11;;;;;;;12.43;2.30;;;10.30;99.90;;;;;;5045510;28;20068;-69
2022/09/17 01:46:45;;;;;;;16.58;2.00;;;10.40;99.90;;;;;;5059649;28;20053;-71
2022/09/17 01:49:14;;;;;;;16.77;3.20;;;10.50;99.90;;;;;;5045543;28;20468;-71
2022/09/17 01:51:44;;;;;;;15.02;2.55;;;10.50;99.90;;;;;;5039977;28;20447;-68
2022/09/17 01:54:23;;;;;;;21.88;2.55;;;10.60;99.90;;;;;;5025823;28;20840;-73
2022/09/17 01:57:00;;;;;;;19.08;2.33;;;10.50;99.90;;;;;;5051039;28;20041;-72
2022/09/17 01:59:51;;;;;;;16.27;2.03;;;10.50;99.90;;;;;;5041888;28;20076;-70
2022/09/17 02:02:24;;;;;;;20.90;2.72;;;10.40;99.90;;;;;;5041840;28;20080;-72
2022/09/17 02:04:54;;;;;;;;;;;10.50;99.90;;;;;;5048655;28;20048;-69
2022/09/17 02:07:21;;;;;;;16.88;2.38;;;10.40;99.90;;;;;;5047842;28;20083;-71
2022/09/17 02:10:19;;;;;;;13.77;2.10;;;10.40;99.90;;;;;;5047703;28;20044;-72
2022/09/17 02:13:09;;;;;;;19.85;2.50;;;10.40;99.90;;;;;;5041449;28;20072;-70
2022/09/17 02:15:42;;;;;;;15.07;2.40;;;10.30;99.90;;;;;;5039863;28;20045;-70
2022/09/17 02:18:28;;;;;;;11.43;1.77;;;10.30;99.90;;;;;;5042789;28;20060;-68
2022/09/17 02:21:19;;;;;;;13.98;1.90;;;10.30;99.90;;;;;;5060550;28;20692;-68
2022/09/17 02:24:05;;;;;;;14.55;2.13;;;10.20;99.90;;;;;;5057442;28;20037;-68
2022/09/17 02:26:33;;;;;;;13.55;1.90;;;10.10;99.90;;;;;;5045397;28;20102;-70
2022/09/17 02:29:10;;;;;;;16.25;2.13;;;10.10;99.90;;;;;;5046695;28;20124;-70
2022/09/17 02:31:36;;;;;;;14.32;2.13;;;10.10;99.90;;;;;;5061560;28;20040;-69
2022/09/17 02:34:04;;;;;;;15.30;1.98;;;10.10;99.90;;;;;;5050936;28;20036;-70
2022/09/17 02:36:31;;;;;;;17.40;2.00;;;10.10;99.90;;;;;;5056765;28;20052;-69
2022/09/17 02:39:01;;;;;;;13.88;1.85;;;10.20;99.90;;;;;;5058717;28;20048;-70
2022/09/17 02:41:51;;;;;;;19.83;2.63;;;10.20;99.90;;;;;;5056632;28;20056;-70
2022/09/17 02:44:34;;;;;;;13.27;2.15;;;10.20;99.90;;;;;;5060467;28;20132;-71
2022/09/17 02:47:05;;;;;;;14.82;2.00;;;10.20;99.90;;;;;;5058989;28;20037;-70
2022/09/17 02:49:49;;;;;;;12.15;1.60;;;10.20;99.90;;;;;;5043769;28;20531;-70
2022/09/17 02:52:33;;;;;;;13.35;1.90;;;10.30;99.90;;;;;;5034149;28;20040;-70
2022/09/17 02:55:17;;;;;;;10.23;1.77;;;10.20;99.90;;;;;;5039605;28;20037;-70
2022/09/17 02:57:57;;;;;;;12.73;2.28;;;10.20;99.90;;;;;;5049388;28;20087;-71
2022/09/17 03:00:27;;;;;;;12.30;1.75;;;10.30;99.90;;;;;;5043543;28;20700;-70
2022/09/17 03:02:58;;;;;;;13.00;1.95;;;10.10;99.90;;;;;;5064593;28;20123;-70
2022/09/17 03:05:26;;;;;;;11.38;1.73;;;10.10;99.90;;;;;;5042342;28;20041;-70
2022/09/17 03:07:55;;;;;;;12.55;1.75;;;10.20;99.90;;;;;;5047212;28;20036;-71
2022/09/17 03:10:21;;;;;;;12.02;1.38;;;10.10;99.90;;;;;;5037815;28;20459;-70
2022/09/17 03:12:47;;;;;;;10.43;1.83;;;10.10;99.90;;;;;;5040911;28;20176;-69
2022/09/17 03:15:13;;;;;;;11.20;1.52;;;10.10;99.90;;;;;;5060339;28;20041;-67
2022/09/17 03:17:38;;;;;;;11.40;1.75;;;10.00;99.90;;;;;;5042830;28;20545;-68
2022/09/17 03:20:05;;;;;;;9.90;1.58;;;10.00;99.90;;;;;;5041853;28;20045;-68
2022/09/17 03:22:30;;;;;;;15.80;2.03;;;10.00;99.90;;;;;;5058281;28;20037;-70
2022/09/17 03:24:56;;;;;;;10.73;1.70;;;9.90;99.90;;;;;;5043748;28;21740;-69
2022/09/17 03:27:21;;;;;;;13.10;1.80;;;10.00;99.90;;;;;;5050688;28;20037;-70
2022/09/17 03:29:47;;;;;;;9.63;1.40;;;10.00;99.90;;;;;;5045486;28;20323;-68
2022/09/17 03:32:13;;;;;;;14.80;1.60;;;10.00;99.90;;;;;;5039971;28;20505;-69
2022/09/17 03:34:38;;;;;;;9.73;2.03;;;10.10;99.90;;;;;;5047868;28;20033;-70
2022/09/17 03:37:04;;;;;;;16.10;1.92;;;10.20;99.90;;;;;;5046014;28;20059;-69
2022/09/17 03:39:30;;;;;;;17.58;1.85;;;10.20;99.90;;;;;;5048948;28;20487;-69
2022/09/17 03:41:55;;;;;;;14.63;2.00;;;10.20;99.90;;;;;;5043453;28;20120;-68
2022/09/17 03:44:22;;;;;;;13.75;1.90;;;10.20;99.90;;;;;;5048986;28;20115;-69
2022/09/17 03:46:48;;;;;;;9.80;1.88;;;10.10;99.90;;;;;;5061103;28;20558;-67
2022/09/17 03:49:14;;;;;;;10.48;1.60;;;10.10;99.90;;;;;;5047938;28;20040;-70
2022/09/17 03:51:39;;;;;;;14.48;1.50;;;10.10;99.90;;;;;;5053004;28;20079;-69
2022/09/17 03:54:06;;;;;;;15.40;1.90;;;10.20;99.90;;;;;;5062094;28;20091;-68
2022/09/17 03:56:31;;;;;;;12.57;2.00;;;10.20;99.90;;;;;;5041111;28;20041;-70
2022/09/17 03:59:00;;;;;;;11.38;1.67;;;10.20;99.90;;;;;;5054415;28;20043;-69
2022/09/17 04:01:27;;;;;;;14.10;1.80;;;10.20;99.90;;;;;;5044082;28;20045;-72
2022/09/17 04:03:53;;;;;;;15.57;2.25;;;10.30;99.90;;;;;;5048990;28;20207;-70
2022/09/17 04:06:19;;;;;;;12.23;2.20;;;10.30;99.90;;;;;;5048266;28;20039;-69
2022/09/17 04:08:44;;;;;;;16.77;2.28;;;10.20;99.90;;;;;;5059237;28;20041;-68
2022/09/17 04:11:10;;;;;;;21.42;2.42;;;10.10;99.90;;;;;;5045148;28;20475;-70
2022/09/17 04:13:36;;;;;;;14.20;2.25;;;10.10;99.90;;;;;;5041619;28;20120;-70
2022/09/17 04:16:02;;;;;;;18.92;2.03;;;10.10;99.90;;;;;;5058289;28;20040;-69
2022/09/17 04:18:28;;;;;;;18.70;2.25;;;10.10;99.90;;;;;;5046290;28;20127;-70
2022/09/17 04:20:53;;;;;;;16.20;1.98;;;10.00;99.90;;;;;;5044281;28;20132;-68
2022/09/17 04:23:19;;;;;;;14.18;2.15;;;10.00;99.90;;;;;;5042431;28;20368;-70
2022/09/17 04:25:45;;;;;;;12.35;2.13;;;9.90;99.90;;;;;;5048135;28;20041;-67
2022/09/17 04:28:10;;;;;;;11.50;1.58;;;10.00;99.90;;;;;;5055853;28;20032;-70
2022/09/17 04:30:36;;;;;;;12.93;1.75;;;9.90;99.90;;;;;;5044397;28;20551;-69
2022/09/17 04:33:03;;;;;;;21.00;2.55;;;9.90;99.90;;;;;;5043229;28;20056;-70
2022/09/17 04:35:28;;;;;;;15.02;1.92;;;9.80;99.90;;;;;;5044927;28;20388;-69
2022/09/17 04:37:57;;;;;;;13.05;1.80;;;9.80;99.90;;;;;;5047026;28;20144;-68
2022/09/17 04:40:25;;;;;;;12.60;1.88;;;9.80;99.90;;;;;;5050043;28;20551;-68
2022/09/17 04:42:58;;;;;;;18.33;2.35;;;9.80;99.90;;;;;;5042661;28;20055;-69
2022/09/17 04:45:25;;;;;;;19.30;2.00;;;9.80;99.90;;;;;;5043901;28;20056;-70
2022/09/17 04:47:50;;;;;;;16.02;2.20;;;9.80;99.90;;;;;;5064822;28;20543;-71
2022/09/17 04:50:20;;;;;;;13.80;1.83;;;9.80;99.90;;;;;;5051201;28;22295;-71
2022/09/17 04:52:47;;;;;;;13.90;2.08;;;9.90;99.90;;;;;;5047235;28;20057;-72
2022/09/17 04:55:13;;;;;;;8.48;1.45;;;10.00;99.90;;;;;;5054385;28;20040;-72
2022/09/17 04:57:44;;;;;;;7.28;1.80;;;10.10;99.90;;;;;;5051740;28;20048;-70
2022/09/17 05:00:10;;;;;;;4.80;0.98;;;10.30;99.90;;;;;;5048412;28;20048;-74
2022/09/17 05:02:35;;;;;;;11.52;1.55;;;10.30;99.90;;;;;;5038638;28;20036;-69
2022/09/17 05:05:01;;;;;;;10.07;1.20;;;10.30;99.90;;;;;;5043669;28;20044;-70
2022/09/17 05:07:27;;;;;;;7.47;1.17;;;10.30;99.90;;;;;;5049176;28;20053;-73
2022/09/17 05:09:52;;;;;;;12.65;1.85;;;10.20;99.90;;;;;;5044839;28;20061;-70
2022/09/17 05:12:18;;;;;;;8.70;1.60;;;10.10;99.90;;;;;;5045154;28;20041;-72
2022/09/17 05:14:44;;;;;;;9.10;1.40;;;10.10;99.90;;;;;;5046177;28;20049;-72
2022/09/17 05:17:10;;;;;;;15.05;1.70;;;9.90;99.90;;;;;;5043294;28;20041;-70
2022/09/17 05:19:36;;;;;;;14.32;1.77;;;9.90;99.90;;;;;;5046804;28;20036;-73
2022/09/17 05:22:02;;;;;;;12.02;1.75;;;9.90;99.90;;;;;;5051107;28;20372;-71
2022/09/17 05:24:27;;;;;;;18.30;1.98;;;9.90;99.90;;;;;;5059054;28;20037;-69
2022/09/17 05:26:53;;;;;;;11.65;2.00;;;9.70;99.90;;;;;;5045782;28;20438;-72
2022/09/17 05:29:18;;;;;;;13.55;2.00;;;9.70;99.90;;;;;;5047290;28;20074;-69
2022/09/17 05:31:44;;;;;;;10.13;1.40;;;9.60;99.90;;;;;;5045298;28;20459;-69
2022/09/17 05:34:09;;;;;;;9.93;1.88;;;9.60;99.90;;;;;;5050238;28;20089;-71
2022/09/17 05:36:35;;;;;;;10.80;2.38;;;9.60;99.90;;;;;;5039168;28;20052;-69
2022/09/17 05:39:01;;;;;;;15.55;2.75;;;9.60;99.90;;;;;;5044366;28;20032;-69
2022/09/17 05:41:26;;;;;;;14.40;1.90;;;9.70;99.90;;;;;;5044787;28;20079;-70
2022/09/17 05:43:52;;;;;;;15.65;2.40;;;9.60;99.90;;;;;;5044651;28;20384;-71
2022/09/17 05:46:17;;;;;;;11.57;1.90;;;9.60;99.90;;;;;;5037015;28;20037;-68
2022/09/17 05:48:43;;;;;;;14.80;1.90;;;9.60;99.90;;;;;;5036554;28;20092;-70
2022/09/17 05:51:08;;;;;;;17.92;1.95;;;9.70;99.90;;;;;;5040619;28;20041;-72
2022/09/17 05:53:34;;;;;;;13.88;1.90;;;9.70;99.90;;;;;;5046593;28;20072;-68
2022/09/17 05:56:00;;;;;;;15.30;2.25;;;9.70;99.90;;;;;;5054929;28;20040;-70
2022/09/17 05:58:26;;;;;;;14.63;1.95;;;9.80;99.90;;;;;;5048867;28;20053;-68
2022/09/17 06:00:52;;;;;;;12.20;1.85;;;9.80;99.90;;;;;;5043230;28;20132;-69
2022/09/17 06:03:19;;;;;;;16.30;1.98;;;9.80;99.90;;;;;;5047127;28;20499;-69
2022/09/17 06:05:57;;;;;;;20.08;2.08;;;9.80;99.90;;;;;;5051780;28;20045;-71
2022/09/17 06:08:23;;;;;;;10.77;2.33;;;9.80;99.90;;;;;;5051803;28;20102;-69
2022/09/17 06:10:49;;;;;;;12.80;2.25;;;9.80;99.90;;;;;;5054794;28;20041;-73
2022/09/17 06:13:16;;;;;;;17.80;2.10;;;9.90;99.90;;;;;;5047527;28;20039;-70
2022/09/17 06:15:41;;;;;;;12.50;1.75;;;9.90;99.90;;;;;;5053762;28;20028;-70
2022/09/17 06:18:07;;;;;;;18.42;1.92;;;9.90;99.90;;;;;;5035025;28;20441;-68
2022/09/17 06:20:32;;;;;;;14.65;1.98;;;10.00;99.90;;;;;;5061912;28;20048;-69
2022/09/17 06:22:58;;;;;;;11.82;1.33;;;10.00;99.90;;;;;;5055471;28;20048;-70
2022/09/17 06:25:25;;;;;;;10.50;1.63;;;10.00;99.90;;;;;;5061481;28;20115;-68
2022/09/17 06:27:51;;;;;;;12.52;1.55;;;10.00;99.90;;;;;;5051887;28;20261;-70
2022/09/17 06:30:17;;;;;;;13.25;2.00;;;10.10;99.90;;;;;;5053056;28;20162;-69
2022/09/17 06:32:42;;;;;;;10.32;1.83;;;10.10;99.90;;;;;;5051820;28;20036;-69
2022/09/17 06:35:09;;;;;;;16.13;1.92;;;10.20;99.90;;;;;;5043201;28;20107;-72
2022/09/17 06:37:38;;;;;;;10.15;1.58;;;10.20;99.90;;;;;;5020011;28;20127;-70
2022/09/17 06:40:05;;;;;;;12.52;2.08;;;10.20;99.90;;;;;;5057954;28;20055;-68
2022/09/17 06:42:30;;;;;;;11.18;1.42;;;10.10;99.90;;;;;;5049767;28;20056;-68
2022/09/17 06:44:57;;;;;;;14.35;1.52;;;10.10;99.90;;;;;;5054635;28;20040;-69
2022/09/17 06:47:25;;;;;;;11.10;2.05;;;9.90;99.90;;;;;;5053962;28;20119;-70
2022/09/17 06:49:51;;;;;;;12.32;1.83;;;9.90;99.90;;;;;;5059876;28;20127;-70
2022/09/17 06:52:17;;;;;;;14.55;1.55;;;9.90;99.90;;;;;;5053436;28;20120;-69
2022/09/17 06:54:42;;;;;;;12.18;1.80;;;9.90;99.90;;;;;;5055568;28;20036;-68
2022/09/17 06:57:08;;;;;;;9.57;1.48;;;10.00;99.90;;;;;;5052939;28;20038;-69
2022/09/17 06:59:34;;;;;;;8.23;1.25;;;10.30;99.90;;;;;;5057330;28;20531;-71
2022/09/17 07:01:59;;;;;;;14.05;1.90;;;10.50;99.90;;;;;;5054904;28;20041;-72
2022/09/17 07:04:25;;;;;;;11.90;1.40;;;10.60;99.90;;;;;;5055411;28;20044;-71
2022/09/17 07:06:50;;;;;;;13.93;1.30;;;10.80;99.90;;;;;;5054989;28;20076;-67
2022/09/17 07:09:16;;;;;;;10.60;1.48;;;10.80;99.90;;;;;;5052321;28;20094;-72
2022/09/17 07:11:41;;;;;;;9.38;1.00;;;10.80;99.90;;;;;;5055350;28;20233;-70
2022/09/17 07:14:07;;;;;;;8.57;1.10;;;10.60;99.90;;;;;;5038907;28;20032;-68
2022/09/17 07:16:34;;;;;;;6.28;1.08;;;10.60;99.90;;;;;;5062520;28;20059;-71
2022/09/17 07:19:01;;;;;;;8.90;1.33;;;10.60;99.90;;;;;;5060119;28;20041;-69
2022/09/17 07:21:27;;;;;;;13.10;1.45;;;10.60;99.90;;;;;;5052151;28;20082;-69
2022/09/17 07:23:52;;;;;;;12.05;1.45;;;10.70;99.90;;;;;;5046461;28;20116;-69
2022/09/17 07:26:18;;;;;;;9.40;1.10;;;10.90;99.90;;;;;;5046106;28;20033;-71
2022/09/17 07:28:44;;;;;;;12.30;1.58;;;11.00;99.90;;;;;;5048033;28;20051;-70
2022/09/17 07:31:10;;;;;;;9.13;1.60;;;11.10;99.90;;;;;;5048685;28;20606;-72
2022/09/17 07:33:36;;;;;;;11.82;1.60;;;11.30;99.90;;;;;;5051243;28;20891;-70
2022/09/17 07:36:05;;;;;;;8.85;1.27;;;11.40;99.90;;;;;;5052443;28;20510;-70
2022/09/17 07:38:30;;;;;;;10.05;1.25;;;11.50;99.90;;;;;;5047030;28;20045;-70
2022/09/17 07:40:59;;;;;;;7.15;1.00;;;11.70;99.90;;;;;;5051773;28;20047;-71
2022/09/17 07:43:29;;;;;;;9.95;1.10;;;11.70;99.90;;;;;;5054196;28;20036;-71
2022/09/17 07:46:00;;;;;;;6.68;1.38;;;11.80;99.90;;;;;;5056567;28;20032;-71
2022/09/17 07:48:27;;;;;;;8.95;1.20;;;11.80;99.90;;;;;;5049208;28;20076;-69
2022/09/17 07:50:53;;;;;;;7.15;1.17;;;11.80;99.90;;;;;;5070256;28;20390;-70
2022/09/17 07:53:19;;;;;;;10.10;0.95;;;11.70;99.90;;;;;;5048688;28;20056;-71
2022/09/17 07:55:58;;;;;;;6.63;1.00;;;11.80;99.90;;;;;;5050355;28;20045;-71
2022/09/17 07:58:30;;;;;;;10.52;1.50;;;11.80;99.90;;;;;;5058894;28;20041;-73
2022/09/17 08:01:04;;;;;;;9.93;1.27;;;11.90;99.90;;;;;;5051898;28;20049;-73
2022/09/17 08:03:30;;;;;;;8.80;1.10;;;12.00;99.90;;;;;;5046775;28;20267;-71
2022/09/17 08:06:06;;;;;;;8.95;1.20;;;12.10;99.90;;;;;;5044834;28;20048;-72
2022/09/17 08:08:34;;;;;;;7.53;1.20;;;12.20;99.90;;;;;;5064964;28;20048;-71
2022/09/17 08:11:11;;;;;;;6.53;1.00;;;12.30;99.90;;;;;;5053490;28;20036;-73
2022/09/17 08:13:37;;;;;;;7.18;0.80;;;12.30;99.90;;;;;;5046527;28;20131;-71
2022/09/17 08:16:06;;;;;;;7.43;1.25;;;12.30;99.90;;;;;;5068895;28;20065;-72
2022/09/17 08:18:32;;;;;;;5.35;0.82;;;12.30;99.90;;;;;;5052727;28;20037;-69
2022/09/17 08:20:59;;;;;;;5.05;0.80;;;12.50;99.90;;;;;;5049475;28;20132;-73
2022/09/17 08:23:26;;;;;;;4.65;0.55;;;12.50;99.90;;;;;;5050827;28;20376;-71
2022/09/17 08:25:54;;;;;;;3.80;0.40;;;12.70;99.90;;;;;;5058045;28;20099;-75
2022/09/17 08:28:20;;;;;;;5.03;0.68;;;12.80;99.90;;;;;;5050737;28;20072;-69
2022/09/17 08:30:47;;;;;;;9.60;0.82;;;12.90;99.90;;;;;;5050333;28;20455;-70
2022/09/17 08:33:13;;;;;;;6.97;0.80;;;12.90;99.90;;;;;;5054240;28;20475;-71
2022/09/17 08:35:38;;;;;;;5.13;0.80;;;13.00;99.90;;;;;;5049396;28;20050;-70
2022/09/17 08:38:04;;;;;;;6.43;0.80;;;12.90;99.90;;;;;;5045483;28;20045;-72
2022/09/17 08:40:30;;;;;;;7.72;0.70;;;12.70;99.90;;;;;;5057826;28;20101;-70
2022/09/17 08:43:01;;;;;;;5.90;0.73;;;12.60;99.90;;;;;;5056804;28;20044;-70
2022/09/17 08:45:27;;;;;;;6.30;1.30;;;12.40;99.90;;;;;;5064511;28;20067;-72
2022/09/17 08:48:03;;;;;;;4.35;0.70;;;12.40;99.90;;;;;;5051097;28;20075;-69
2022/09/17 08:50:38;;;;;;;2.70;0.77;;;12.60;99.90;;;;;;5059901;28;20479;-73
2022/09/17 08:53:03;;;;;;;4.30;0.70;;;12.70;99.90;;;;;;5050621;28;20547;-70
2022/09/17 08:55:39;;;;;;;5.72;0.80;;;12.70;99.90;;;;;;5041614;28;20120;-72
2022/09/17 08:58:26;;;;;;;6.45;1.35;;;12.60;99.90;;;;;;5069990;28;20037;-75
2022/09/17 09:01:18;;;;;;;6.57;1.27;;;12.60;99.90;;;;;;5053956;28;20450;-74
2022/09/17 09:04:27;;;;;;;6.15;1.20;;;12.80;99.90;;;;;;5051598;28;20051;-72
2022/09/17 09:07:07;;;;;;;4.63;0.73;;;12.90;99.90;;;;;;5041831;28;20403;-70
2022/09/17 09:09:40;;;;;;;4.53;0.85;;;12.80;99.90;;;;;;5043676;28;20075;-69
2022/09/17 09:12:16;;;;;;;6.80;1.35;;;12.80;99.90;;;;;;5049751;28;20037;-70
2022/09/17 09:15:19;;;;;;;6.75;1.05;;;12.70;99.90;;;;;;5053447;28;20395;-73
2022/09/17 09:17:47;;;;;;;4.80;0.95;;;12.50;99.90;;;;;;5052902;28;20091;-72
2022/09/17 09:20:19;;;;;;;6.85;0.98;;;12.60;99.90;;;;;;5057010;28;20086;-71
2022/09/17 09:22:49;;;;;;;3.30;0.60;;;12.70;99.90;;;;;;5052299;28;20032;-72
2022/09/17 09:25:23;;;;;;;6.07;0.70;;;12.70;99.90;;;;;;5053918;28;20028;-69
2022/09/17 09:28:05;;;;;;;6.47;0.88;;;12.70;99.90;;;;;;5049432;28;20033;-73
2022/09/17 09:30:41;;;;;;;;;;;12.50;99.90;;;;;;5052577;28;20110;-69
2022/09/17 09:33:16;;;;;;;7.13;1.30;;;12.30;99.90;;;;;;5073324;28;19916;-70
2022/09/17 09:35:43;;;;;;;6.32;1.10;;;12.40;99.90;;;;;;5068698;28;20078;-69
2022/09/17 09:38:30;;;;;;;9.05;1.20;;;12.50;99.90;;;;;;5055063;28;20068;-71
2022/09/17 09:40:59;;;;;;;7.78;1.10;;;12.80;99.90;;;;;;5049692;28;20055;-72
2022/09/17 09:43:47;;;;;;;8.85;1.30;;;13.00;99.90;;;;;;5059991;28;20040;-71
2022/09/17 09:46:43;;;;;;;9.02;0.90;;;13.10;99.90;;;;;;5052562;28;20503;-70
2022/09/17 09:49:30;;;;;;;8.65;1.00;;;13.10;99.90;;;;;;5066052;28;20040;-70
2022/09/17 09:52:11;;;;;;;6.75;0.85;;;13.00;99.90;;;;;;5073316;28;20047;-73
2022/09/17 09:54:57;;;;;;;6.43;0.93;;;13.00;99.90;;;;;;5066573;28;20048;-74
2022/09/17 09:57:47;;;;;;;7.13;0.90;;;13.00;99.90;;;;;;5050004;28;20119;-69
2022/09/17 10:00:38;;;;;;;8.20;1.13;;;12.90;99.90;;;;;;5063236;28;20058;-70
2022/09/17 10:03:16;;;;;;;6.07;0.98;;;13.00;99.90;;;;;;5054761;28;20069;-73
2022/09/17 10:06:06;;;;;;;8.75;1.38;;;13.20;99.90;;;;;;5047889;28;20040;-71
2022/09/17 10:08:40;;;;;;;7.43;1.30;;;13.50;99.90;;;;;;5053197;28;20448;-72
2022/09/17 10:11:12;;;;;;;10.73;1.48;;;13.80;99.90;;;;;;5048777;28;20040;-69
2022/09/17 10:13:39;;;;;;;5.57;0.98;;;13.80;99.90;;;;;;5058887;28;20033;-68
2022/09/17 10:16:23;;;;;;;10.70;2.03;;;13.70;99.90;;;;;;5055722;28;20047;-73
2022/09/17 10:19:05;;;;;;;17.35;2.67;;;13.20;99.90;;;;;;5070740;28;20072;-71
2022/09/17 10:21:39;;;;;;;11.82;1.38;;;12.90;99.90;;;;;;5067708;28;20041;-75
2022/09/17 10:24:30;;;;;;;7.38;0.90;;;12.40;99.90;;;;;;5049284;28;20036;-75
2022/09/17 10:27:10;;;;;;;6.30;0.98;;;11.90;99.90;;;;;;5051986;28;20110;-74
2022/09/17 10:29:41;;;;;;;8.07;0.95;;;11.60;99.90;;;;;;5053092;28;20037;-74
2022/09/17 10:32:17;;;;;;;9.40;1.17;;;11.40;99.90;;;;;;5048502;28;20119;-73
2022/09/17 10:34:58;;;;;;;14.25;1.50;;;11.60;99.90;;;;;;5034621;28;20476;-74
2022/09/17 10:37:34;;;;;;;4.40;0.75;;;11.70;99.90;;;;;;5045223;28;20384;-74
2022/09/17 10:40:00;;;;;;;4.90;0.77;;;11.50;99.90;;;;;;5066365;28;20420;-75
2022/09/17 10:42:27;;;;;;;2.10;0.45;;;11.10;99.90;;;;;;5064672;28;20049;-73
2022/09/17 10:44:55;;;;;;;3.90;0.77;;;10.80;99.90;;;;;;5051980;28;20041;-75
2022/09/17 10:47:36;;;;;;;4.32;0.80;;;10.50;99.90;;;;;;5052800;28;20456;-73
2022/09/17 10:50:16;;;;;;;3.08;0.65;;;10.40;99.90;;;;;;5052765;28;20471;-74
2022/09/17 10:52:51;;;;;;;5.28;0.98;;;10.50;99.90;;;;;;5052117;28;20048;-76
2022/09/17 10:55:55;;;;;;;5.90;0.82;;;10.90;99.90;;;;;;5035905;28;20045;-72
2022/09/17 10:58:53;;;;;;;8.80;0.95;;;11.20;99.90;;;;;;5061817;28;20048;-75
2022/09/17 11:01:21;;;;;;;8.77;1.15;;;11.40;99.90;;;;;;5052027;28;20422;-75
2022/09/17 11:04:01;;;;;;;8.13;1.17;;;11.50;99.90;;;;;;5064329;28;20042;-73
2022/09/17 11:06:53;;;;;;;6.38;1.00;;;11.80;99.90;;;;;;5049105;28;20048;-77
2022/09/17 11:09:32;;;;;;;4.43;0.80;;;12.10;99.90;;;;;;5045804;28;20037;-72
2022/09/17 11:12:25;;;;;;;5.45;0.85;;;12.10;99.90;;;;;;5071921;28;20487;-70
2022/09/17 11:15:00;;;;;;;5.88;1.00;;;12.20;99.90;;;;;;5033371;28;20041;-75
2022/09/17 11:18:10;;;;;;;5.13;0.80;;;12.30;99.90;;;;;;5051850;28;20044;-71
2022/09/17 11:20:48;;;;;;;4.78;0.63;;;12.40;99.90;;;;;;5041109;28;20048;-72
2022/09/17 11:23:46;;;;;;;2.35;0.65;;;12.60;99.90;;;;;;5063309;28;20045;-74
2022/09/17 11:26:24;;;;;;;4.85;0.60;;;12.60;99.90;;;;;;5042066;28;20108;-71
2022/09/17 11:29:29;;;;;;;4.22;0.35;;;12.80;99.90;;;;;;5048469;28;20127;-73
2022/09/17 11:32:03;;;;;;;5.13;0.57;;;13.10;99.90;;;;;;5060567;28;20043;-74
2022/09/17 11:34:45;;;;;;;4.05;0.50;;;13.30;99.90;;;;;;5050532;28;20098;-72
2022/09/17 11:37:26;;;;;;;3.55;0.90;;;13.30;99.90;;;;;;5051980;28;20045;-73
2022/09/17 11:40:05;;;;;;;4.07;0.60;;;13.30;99.90;;;;;;5051406;28;20041;-70
2022/09/17 11:42:40;;;;;;;4.38;0.57;;;13.20;99.90;;;;;;5043006;28;20091;-76
2022/09/17 11:45:28;;;;;;;2.97;0.95;;;13.00;99.90;;;;;;5068442;28;20047;-73
2022/09/17 11:48:04;;;;;;;4.55;0.68;;;12.90;99.90;;;;;;5048826;28;20045;-72
2022/09/17 11:50:54;;;;;;;3.45;0.60;;;13.00;99.90;;;;;;5051435;28;20128;-71
2022/09/17 11:53:34;;;;;;;2.95;0.70;;;13.20;99.90;;;;;;5070180;28;20055;-74
2022/09/17 11:56:13;;;;;;;5.88;0.90;;;13.30;99.90;;;;;;5058983;28;20426;-73
2022/09/17 11:58:54;;;;;;;3.15;0.70;;;13.40;99.90;;;;;;5047721;28;20041;-69
2022/09/17 12:01:25;;;;;;;3.80;0.73;;;13.60;99.90;;;;;;5049942;28;20105;-75
2022/09/17 12:04:01;;;;;;;9.52;1.27;;;13.70;99.90;;;;;;5048862;28;20041;-72
2022/09/17 12:06:37;;;;;;;6.47;0.68;;;13.80;99.90;;;;;;5045900;28;20057;-75
2022/09/17 12:09:21;;;;;;;7.68;0.80;;;13.90;99.90;;;;;;5057351;28;20132;-71
2022/09/17 12:12:00;;;;;;;6.78;0.98;;;13.70;99.90;;;;;;5067378;28;20041;-73
2022/09/17 12:15:11;;;;;;;7.07;0.98;;;13.50;99.90;;;;;;5042368;28;20037;-70
2022/09/17 12:17:43;;;;;;;7.20;1.23;;;13.30;99.90;;;;;;5047799;28;20063;-76
2022/09/17 12:20:25;;;;;;;4.28;0.77;;;13.30;99.90;;;;;;5030710;28;20077;-73
2022/09/17 12:22:52;;;;;;;3.33;0.77;;;13.40;99.90;;;;;;5046529;28;20124;-75
2022/09/17 12:25:18;;;;;;;5.43;1.00;;;13.50;99.90;;;;;;5034528;28;20043;-73
2022/09/17 12:27:55;;;;;;;6.50;1.17;;;13.70;99.90;;;;;;5057255;28;20045;-76
2022/09/17 12:30:50;;;;;;;10.10;1.20;;;13.80;99.90;;;;;;5049477;28;20040;-75
2022/09/17 12:33:32;;;;;;;5.30;0.77;;;13.90;99.90;;;;;;5049454;28;20084;-70
2022/09/17 12:35:58;;;;;;;;;;;14.00;99.90;;;;;;5029889;28;20033;-70
2022/09/17 12:38:45;;;;;;;9.15;1.27;;;14.00;99.90;;;;;;5030249;28;19967;-75
2022/09/17 12:41:19;;;;;;;12.80;1.80;;;14.10;99.90;;;;;;5039049;28;20072;-76
2022/09/17 12:43:58;;;;;;;8.48;1.45;;;14.20;99.90;;;;;;5049893;28;20036;-73
2022/09/17 12:47:02;;;;;;;12.88;1.90;;;14.30;99.90;;;;;;5030028;28;20056;-72
2022/09/17 12:50:11;;;;;;;8.93;1.40;;;14.40;99.90;;;;;;5030343;28;20052;-73
2022/09/17 12:52:56;;;;;;;6.30;1.02;;;14.40;99.90;;;;;;5045825;28;20530;-72
2022/09/17 12:55:30;;;;;;;10.60;1.63;;;14.50;99.90;;;;;;5047199;28;20504;-76
2022/09/17 12:58:14;;;;;;;13.88;1.63;;;14.70;99.90;;;;;;5046847;28;20048;-73
2022/09/17 13:00:45;;;;;;;15.18;2.25;;;14.80;99.90;;;;;;5040256;28;20037;-72
2022/09/17 13:03:35;;;;;;;12.48;2.00;;;14.70;99.90;;;;;;5029408;28;20095;-74
2022/09/17 13:06:14;;;;;;;9.23;1.52;;;14.70;99.90;;;;;;5029824;28;20049;-73
2022/09/17 13:09:13;;;;;;;9.57;1.30;;;14.60;99.90;;;;;;5050256;28;20096;-74
2022/09/17 13:11:57;;;;;;;13.48;1.63;;;14.70;99.90;;;;;;5049262;28;20044;-73
2022/09/17 13:14:48;;;;;;;9.25;1.40;;;14.90;99.90;;;;;;5061604;28;20037;-72
2022/09/17 13:17:31;;;;;;;9.25;1.58;;;14.90;99.90;;;;;;5043199;28;20060;-71